Time;durP1;ratioP1;P1;durP2;ratioP2;P2;SDS_P1;SDS_P2;PMS_P1;PMS_P2;Temp;Humidity;BMP_temperature;BMP_pressure;BME280_temperature;BME280_humidity;BME280_pressure;Samples;Min_cycle;Max_cycle;Signal;HPM_P1;HPM_P2
2021/06/04 00:02:22;;;;;;;7.80;7.03;;;19.40;1.00;;;;;;5048662;28;20448;-79
2021/06/04 00:04:48;;;;;;;7.67;6.87;;;19.40;1.00;;;;;;5051608;28;20461;-78
2021/06/04 00:07:14;;;;;;;7.37;6.87;;;19.30;1.00;;;;;;5048733;28;20611;-78
2021/06/04 00:09:41;;;;;;;8.50;7.90;;;19.30;1.00;;;;;;5048020;28;21320;-80
2021/06/04 00:12:07;;;;;;;8.63;6.47;;;19.20;1.00;;;;;;5034262;28;20450;-79
2021/06/04 00:14:36;;;;;;;7.60;6.90;;;19.20;1.00;;;;;;5045484;28;20464;-79
2021/06/04 00:17:08;;;;;;;7.83;7.00;;;19.10;1.00;;;;;;5059182;28;20617;-80
2021/06/04 00:19:35;;;;;;;8.13;7.43;;;19.10;1.00;;;;;;5059432;28;20730;-80
2021/06/04 00:22:07;;;;;;;7.90;7.27;;;19.10;1.00;;;;;;5050847;28;20554;-79
2021/06/04 00:24:35;;;;;;;7.87;7.27;;;19.10;1.00;;;;;;5060507;28;21101;-79
2021/06/04 00:27:01;;;;;;;7.67;6.97;;;19.10;1.00;;;;;;5050665;28;20474;-79
2021/06/04 00:29:28;;;;;;;7.50;7.00;;;19.00;1.00;;;;;;5047745;28;20977;-80
2021/06/04 00:31:55;;;;;;;7.77;7.17;;;19.00;1.00;;;;;;5051447;28;20444;-78
2021/06/04 00:34:24;;;;;;;7.70;7.03;;;18.90;1.00;;;;;;5059068;28;20756;-80
2021/06/04 00:36:51;;;;;;;7.57;7.03;;;18.90;1.00;;;;;;5045155;28;20580;-79
2021/06/04 00:39:21;;;;;;;7.97;7.37;;;18.90;1.00;;;;;;5041390;28;20482;-80
2021/06/04 00:41:51;;;;;;;8.10;7.47;;;18.90;1.00;;;;;;5043066;28;20464;-80
2021/06/04 00:44:17;;;;;;;7.87;7.27;;;18.90;1.00;;;;;;5041387;28;20532;-79
2021/06/04 00:46:44;;;;;;;7.80;7.20;;;18.80;1.00;;;;;;5045361;28;20464;-80
2021/06/04 00:49:10;;;;;;;8.60;7.70;;;18.70;1.00;;;;;;5037993;28;20582;-80
2021/06/04 00:51:42;;;;;;;7.67;7.03;;;18.70;1.00;;;;;;5045711;28;20463;-80
2021/06/04 00:54:09;;;;;;;8.40;6.87;;;18.70;1.00;;;;;;5038289;28;20525;-80
2021/06/04 00:56:38;;;;;;;8.27;7.37;;;18.60;1.00;;;;;;5037098;28;20547;-79
2021/06/04 00:59:06;;;;;;;8.10;7.50;;;18.50;1.00;;;;;;5036791;28;20443;-80
2021/06/04 01:01:34;;;;;;;7.70;7.10;;;18.50;1.00;;;;;;5038955;28;20621;-79
2021/06/04 01:04:04;;;;;;;8.00;7.30;;;18.40;1.00;;;;;;5047727;28;20546;-79
2021/06/04 01:06:36;;;;;;;7.57;6.80;;;18.50;1.00;;;;;;5040186;28;21610;-79
2021/06/04 01:09:14;;;;;;;8.40;7.60;;;18.40;1.00;;;;;;5035840;28;20431;-79
2021/06/04 01:11:52;;;;;;;8.50;7.73;;;18.40;1.00;;;;;;5039970;28;20542;-80
2021/06/04 01:14:27;;;;;;;7.40;6.80;;;18.40;1.00;;;;;;5045475;28;21289;-79
2021/06/04 01:17:00;;;;;;;7.67;7.07;;;18.40;1.00;;;;;;5040500;28;20454;-80
2021/06/04 01:19:46;;;;;;;8.50;7.50;;;18.40;1.00;;;;;;5041700;28;20487;-79
2021/06/04 01:22:23;;;;;;;8.07;7.30;;;18.40;1.00;;;;;;5040864;28;20483;-79
2021/06/04 01:25:11;;;;;;;7.77;7.23;;;18.40;1.00;;;;;;5043551;28;21369;-79
2021/06/04 01:27:44;;;;;;;7.80;7.20;;;18.40;1.00;;;;;;5055791;28;20415;-78
2021/06/04 01:30:22;;;;;;;7.27;6.77;;;18.40;1.00;;;;;;5071650;28;20509;-78
2021/06/04 01:32:50;;;;;;;8.00;7.37;;;18.40;1.00;;;;;;5068197;28;20428;-78
2021/06/04 01:35:21;;;;;;;7.70;7.10;;;18.40;1.00;;;;;;5065788;28;22353;-79
2021/06/04 01:37:48;;;;;;;8.70;7.37;;;18.40;1.00;;;;;;5050805;28;20421;-79
2021/06/04 01:40:20;;;;;;;7.90;7.17;;;18.30;1.00;;;;;;5050801;28;20551;-79
2021/06/04 01:42:49;;;;;;;7.87;7.27;;;18.40;1.00;;;;;;5052915;28;20476;-79
2021/06/04 01:45:19;;;;;;;7.60;6.80;;;18.40;1.00;;;;;;5051713;28;21192;-79
2021/06/04 01:47:49;;;;;;;8.40;7.70;;;18.40;1.00;;;;;;5050567;28;20517;-79
2021/06/04 01:50:21;;;;;;;8.60;7.90;;;18.40;1.00;;;;;;5047496;28;21015;-79
2021/06/04 01:52:50;;;;;;;8.67;7.87;;;18.40;1.00;;;;;;5051144;28;20540;-79
2021/06/04 01:55:21;;;;;;;8.30;7.60;;;18.40;1.00;;;;;;5048570;28;20526;-80
2021/06/04 01:57:51;;;;;;;8.37;7.57;;;18.40;1.00;;;;;;5048755;28;20532;-79
2021/06/04 02:00:22;;;;;;;7.93;7.27;;;18.40;1.00;;;;;;5058156;28;23493;-79
2021/06/04 02:02:49;;;;;;;8.20;7.43;;;18.40;1.00;;;;;;5046466;28;21335;-78
2021/06/04 02:05:20;;;;;;;8.73;8.07;;;18.40;1.00;;;;;;5052259;28;20559;-79
2021/06/04 02:07:46;;;;;;;8.40;7.67;;;18.40;1.00;;;;;;5055877;28;20482;-79
2021/06/04 02:10:20;;;;;;;8.40;7.77;;;18.40;1.00;;;;;;5059883;28;20569;-79
2021/06/04 02:12:49;;;;;;;8.03;7.20;;;18.40;1.00;;;;;;5050058;28;20505;-79
2021/06/04 02:15:20;;;;;;;7.17;6.57;;;18.40;1.00;;;;;;5050406;28;20594;-80
2021/06/04 02:17:56;;;;;;;9.10;8.37;;;18.30;1.00;;;;;;5043604;28;20557;-80
2021/06/04 02:20:29;;;;;;;8.60;7.83;;;18.30;1.00;;;;;;5044364;28;20484;-81
2021/06/04 02:23:05;;;;;;;8.97;8.10;;;18.30;1.00;;;;;;5046903;28;20466;-81
2021/06/04 02:25:48;;;;;;;7.53;6.93;;;18.30;1.00;;;;;;5043395;28;20492;-79
2021/06/04 02:28:23;;;;;;;8.13;7.40;;;18.30;1.00;;;;;;5044322;28;21443;-79
2021/06/04 02:30:57;;;;;;;8.53;7.63;;;18.30;1.00;;;;;;5044937;28;20567;-78
2021/06/04 02:33:29;;;;;;;8.40;7.70;;;18.30;1.00;;;;;;5045017;28;20463;-78
2021/06/04 02:35:58;;;;;;;7.77;7.17;;;18.30;1.00;;;;;;5043631;28;20406;-81
2021/06/04 02:38:30;;;;;;;7.53;6.87;;;18.20;1.00;;;;;;5050013;28;21022;-81
2021/06/04 02:41:00;;;;;;;8.40;7.70;;;18.20;1.00;;;;;;5053467;28;20453;-81
2021/06/04 02:43:33;;;;;;;8.70;7.73;;;18.20;1.00;;;;;;5048600;28;20454;-80
2021/06/04 02:46:04;;;;;;;11.30;8.37;;;18.10;1.00;;;;;;5048369;28;21389;-81
2021/06/04 02:48:31;;;;;;;7.63;6.93;;;18.10;1.00;;;;;;5046500;28;20466;-80
2021/06/04 02:51:05;;;;;;;7.53;6.93;;;18.10;1.00;;;;;;5045539;28;20526;-81
2021/06/04 02:53:34;;;;;;;8.80;8.03;;;18.10;1.00;;;;;;5043693;28;20582;-80
2021/06/04 02:56:23;;;;;;;8.50;7.60;;;18.10;1.00;;;;;;5043963;28;20458;-80
2021/06/04 02:58:54;;;;;;;8.77;8.13;;;18.00;1.00;;;;;;5048345;28;20598;-80
2021/06/04 03:01:22;;;;;;;7.53;6.97;;;18.00;1.00;;;;;;5045675;28;20531;-79
2021/06/04 03:03:51;;;;;;;8.27;7.67;;;17.90;1.00;;;;;;5050042;28;20499;-80
2021/06/04 03:06:22;;;;;;;8.60;7.90;;;17.90;1.00;;;;;;5052537;28;21066;-79
2021/06/04 03:08:49;;;;;;;8.07;7.20;;;17.90;1.00;;;;;;5053124;28;20466;-81
2021/06/04 03:11:18;;;;;;;8.70;7.93;;;17.90;1.00;;;;;;5047844;28;20457;-79
2021/06/04 03:13:44;;;;;;;8.47;7.87;;;18.00;1.00;;;;;;5049022;28;20459;-80
2021/06/04 03:16:15;;;;;;;8.30;7.50;;;18.00;1.00;;;;;;5046154;28;20462;-81
2021/06/04 03:18:44;;;;;;;11.80;9.13;;;18.00;1.00;;;;;;5046157;28;20970;-80
2021/06/04 03:21:17;;;;;;;8.00;7.20;;;18.10;1.00;;;;;;5046514;28;20475;-80
2021/06/04 03:23:43;;;;;;;7.87;7.17;;;18.00;1.00;;;;;;5050343;28;20466;-81
2021/06/04 03:26:13;;;;;;;8.40;7.70;;;18.00;1.00;;;;;;5054765;28;20428;-81
2021/06/04 03:28:41;;;;;;;8.20;7.50;;;18.00;1.00;;;;;;5055310;28;20850;-81
2021/06/04 03:31:10;;;;;;;12.60;8.87;;;18.00;1.00;;;;;;5055362;28;20446;-80
2021/06/04 03:33:39;;;;;;;8.93;7.60;;;18.00;1.00;;;;;;5047908;28;20455;-80
2021/06/04 03:36:10;;;;;;;9.20;8.30;;;18.00;1.00;;;;;;5045486;28;20744;-81
2021/06/04 03:38:37;;;;;;;11.43;8.37;;;18.00;1.00;;;;;;5040069;28;20549;-81
2021/06/04 03:41:04;;;;;;;8.47;7.60;;;18.00;1.00;;;;;;5044804;28;20457;-81
2021/06/04 03:43:31;;;;;;;9.03;8.10;;;17.90;1.00;;;;;;5044903;28;20530;-81
2021/06/04 03:45:58;;;;;;;9.77;7.73;;;17.90;1.00;;;;;;5048890;28;20431;-80
2021/06/04 03:48:28;;;;;;;9.10;8.30;;;17.90;1.00;;;;;;5043080;28;21275;-80
2021/06/04 03:50:59;;;;;;;8.20;7.50;;;17.90;1.00;;;;;;5043692;28;20462;-81
2021/06/04 03:53:26;;;;;;;9.17;8.27;;;17.90;1.00;;;;;;5047578;28;20530;-79
2021/06/04 03:55:53;;;;;;;8.63;7.87;;;18.00;1.00;;;;;;5044928;28;20444;-79
2021/06/04 03:58:20;;;;;;;9.47;8.27;;;17.90;1.00;;;;;;5047147;28;20451;-79
2021/06/04 04:00:49;;;;;;;8.43;7.60;;;17.90;1.00;;;;;;5044144;28;23533;-80
2021/06/04 04:03:17;;;;;;;11.53;9.10;;;17.90;1.00;;;;;;5041302;28;20705;-81
2021/06/04 04:05:44;;;;;;;11.63;8.10;;;17.90;1.00;;;;;;5045734;28;20551;-79
2021/06/04 04:08:17;;;;;;;12.00;8.83;;;17.90;1.00;;;;;;5050264;28;20593;-80
2021/06/04 04:10:43;;;;;;;9.53;8.63;;;17.90;1.00;;;;;;5043964;28;20540;-80
2021/06/04 04:13:10;;;;;;;9.53;8.53;;;17.90;1.00;;;;;;5044215;28;21540;-79
2021/06/04 04:15:37;;;;;;;8.70;7.80;;;18.00;1.00;;;;;;5043909;28;20422;-80
2021/06/04 04:18:04;;;;;;;8.87;7.97;;;18.10;1.00;;;;;;5042729;28;20454;-81
2021/06/04 04:20:33;;;;;;;11.63;8.30;;;18.10;1.00;;;;;;5043047;28;20887;-79
2021/06/04 04:23:00;;;;;;;10.57;9.30;;;18.10;1.00;;;;;;5050210;28;20969;-80
2021/06/04 04:25:31;;;;;;;8.60;7.73;;;18.20;1.00;;;;;;5052469;28;20549;-81
2021/06/04 04:27:58;;;;;;;8.90;7.67;;;18.20;1.00;;;;;;5051709;28;20966;-79
2021/06/04 04:30:25;;;;;;;8.20;7.40;;;18.10;1.00;;;;;;5048175;28;20470;-80
2021/06/04 04:32:52;;;;;;;10.40;9.50;;;18.20;1.00;;;;;;5047106;28;20597;-79
2021/06/04 04:35:21;;;;;;;8.20;7.40;;;18.10;1.00;;;;;;5053793;28;20591;-80
2021/06/04 04:37:47;;;;;;;10.20;9.20;;;18.00;1.00;;;;;;5053745;28;20502;-81
2021/06/04 04:40:16;;;;;;;12.13;9.10;;;18.00;1.00;;;;;;5054426;28;20439;-81
2021/06/04 04:42:44;;;;;;;9.80;8.90;;;18.00;1.00;;;;;;5054137;28;20517;-81
2021/06/04 04:45:14;;;;;;;10.90;9.57;;;18.10;1.00;;;;;;5055103;28;20449;-82
2021/06/04 04:47:41;;;;;;;12.60;8.63;;;18.20;1.00;;;;;;5069228;28;20466;-80
2021/06/04 04:50:09;;;;;;;15.30;9.00;;;18.20;1.00;;;;;;5049123;28;20436;-80
2021/06/04 04:52:35;;;;;;;7.93;7.33;;;18.30;1.00;;;;;;5048899;28;20491;-81
2021/06/04 04:55:04;;;;;;;8.53;7.83;;;18.30;1.00;;;;;;5056179;28;20423;-81
2021/06/04 04:57:30;;;;;;;8.47;7.67;;;18.30;1.00;;;;;;5043429;28;20450;-80
2021/06/04 04:59:58;;;;;;;8.70;8.00;;;18.30;1.00;;;;;;5053528;28;20442;-82
2021/06/04 05:02:25;;;;;;;10.03;8.80;;;18.30;1.00;;;;;;5057501;28;20534;-83
2021/06/04 05:04:51;;;;;;;9.40;8.60;;;18.30;1.00;;;;;;5060955;28;20417;-84
2021/06/04 05:07:18;;;;;;;10.83;9.93;;;18.30;1.00;;;;;;5058358;28;20505;-83
2021/06/04 05:09:46;;;;;;;8.97;7.87;;;18.30;1.00;;;;;;5058537;28;20455;-83
2021/06/04 05:12:13;;;;;;;9.33;8.37;;;18.30;1.00;;;;;;5060968;28;20458;-82
2021/06/04 05:14:39;;;;;;;11.80;10.10;;;18.40;1.00;;;;;;5065663;28;20462;-83
2021/06/04 05:17:07;;;;;;;10.77;8.73;;;18.40;1.00;;;;;;5060062;28;20493;-82
2021/06/04 05:19:34;;;;;;;9.23;8.43;;;18.40;1.00;;;;;;5060434;28;20459;-83
2021/06/04 05:22:01;;;;;;;10.13;9.17;;;18.40;1.00;;;;;;5054983;28;20450;-82
2021/06/04 05:24:27;;;;;;;8.70;8.00;;;18.40;1.00;;;;;;5059343;28;20865;-84
2021/06/04 05:26:54;;;;;;;9.87;8.87;;;18.30;1.00;;;;;;5053100;28;20649;-80
2021/06/04 05:29:21;;;;;;;9.40;8.20;;;18.30;1.00;;;;;;5054642;28;20427;-82
2021/06/04 05:31:47;;;;;;;10.50;9.40;;;18.20;1.00;;;;;;5054432;28;20487;-84
2021/06/04 05:34:15;;;;;;;10.07;8.40;;;18.20;1.00;;;;;;5046317;28;21214;-85
2021/06/04 05:36:41;;;;;;;10.87;9.90;;;18.10;1.00;;;;;;5055665;28;21234;-83
2021/06/04 05:39:11;;;;;;;11.57;9.70;;;18.00;1.00;;;;;;5067880;28;21043;-84
2021/06/04 05:41:40;;;;;;;10.27;9.33;;;17.80;1.00;;;;;;5060695;28;21931;-84
2021/06/04 05:44:09;;;;;;;11.23;9.90;;;17.60;1.00;;;;;;5056015;28;20418;-86
2021/06/04 05:46:35;;;;;;;11.13;9.57;;;17.40;1.00;;;;;;5062899;28;20452;-83
2021/06/04 05:49:02;;;;;;;10.73;9.70;;;17.20;1.00;;;;;;5067103;28;20516;-83
2021/06/04 05:51:32;;;;;;;9.90;8.90;;;17.10;1.00;;;;;;5066548;28;20441;-90
2021/06/04 05:54:05;;;;;;;10.43;9.63;;;17.00;1.00;;;;;;5079862;28;20978;-86
2021/06/04 05:56:32;;;;;;;12.23;11.13;;;16.90;1.00;;;;;;5081160;28;20417;-92
2021/06/04 05:58:59;;;;;;;10.53;9.60;;;16.90;1.00;;;;;;5075935;28;20408;-84
2021/06/04 06:01:30;;;;;;;11.17;10.27;;;16.90;1.00;;;;;;5069654;28;21006;-87
2021/06/04 06:03:56;;;;;;;9.83;9.03;;;16.90;1.00;;;;;;5066572;28;20420;-89
2021/06/04 06:06:23;;;;;;;21.80;11.37;;;16.90;1.00;;;;;;5064731;28;20498;-86
2021/06/04 06:08:50;;;;;;;10.60;9.60;;;17.00;1.00;;;;;;5059633;28;20409;-87
2021/06/04 06:11:23;;;;;;;12.77;11.10;;;17.00;1.00;;;;;;5072029;28;20476;-87
2021/06/04 06:13:50;;;;;;;12.30;11.10;;;16.90;1.00;;;;;;5073887;28;20393;-90
2021/06/04 06:16:17;;;;;;;12.40;11.33;;;16.80;1.00;;;;;;5073306;28;20498;-86
2021/06/04 06:18:44;;;;;;;12.30;10.87;;;16.80;1.00;;;;;;5060356;28;20414;-85
2021/06/04 06:21:10;;;;;;;11.47;10.47;;;16.70;1.00;;;;;;5058266;28;21268;-82
2021/06/04 06:23:37;;;;;;;12.83;11.53;;;16.70;1.00;;;;;;5050936;28;20465;-83
2021/06/04 06:26:07;;;;;;;11.83;10.90;;;16.60;1.00;;;;;;5060200;28;20479;-82
2021/06/04 06:28:37;;;;;;;12.33;11.33;;;16.70;1.00;;;;;;5063150;28;20460;-82
2021/06/04 06:31:05;;;;;;;12.87;11.70;;;16.70;1.00;;;;;;5062392;28;20526;-88
2021/06/04 06:33:32;;;;;;;12.60;11.33;;;16.70;1.00;;;;;;5059215;28;21544;-85
2021/06/04 06:36:03;;;;;;;12.20;11.10;;;16.70;1.00;;;;;;5061768;28;20464;-88
2021/06/04 06:38:30;;;;;;;11.63;10.53;;;16.70;1.00;;;;;;5064237;28;20503;-88
2021/06/04 06:40:58;;;;;;;12.77;11.60;;;16.80;1.00;;;;;;5051807;28;20453;-82
2021/06/04 06:43:30;;;;;;;12.13;11.03;;;16.90;1.00;;;;;;5055411;28;20537;-85
2021/06/04 06:45:57;;;;;;;12.80;11.03;;;17.00;1.00;;;;;;5053392;28;20476;-82
2021/06/04 06:48:24;;;;;;;11.20;10.20;;;17.20;1.00;;;;;;5053100;28;20450;-83
2021/06/04 06:50:51;;;;;;;11.50;10.53;;;17.30;1.00;;;;;;5050512;28;20616;-82
2021/06/04 06:53:18;;;;;;;12.83;11.50;;;17.50;1.00;;;;;;5063072;28;20462;-81
2021/06/04 06:55:45;;;;;;;12.30;11.10;;;17.60;1.00;;;;;;5060916;28;20454;-83
2021/06/04 06:58:13;;;;;;;19.57;17.70;;;17.80;1.00;;;;;;5066436;28;20467;-82
2021/06/04 07:00:48;;;;;;;11.70;10.57;;;17.90;1.00;;;;;;5070648;28;20435;-84
2021/06/04 07:03:18;;;;;;;11.47;9.93;;;18.00;1.00;;;;;;5061172;28;20445;-84
2021/06/04 07:05:45;;;;;;;14.53;11.50;;;18.10;1.00;;;;;;5084930;28;20418;-85
2021/06/04 07:08:12;;;;;;;19.60;12.00;;;18.20;1.00;;;;;;5060852;28;22181;-82
2021/06/04 07:10:39;;;;;;;21.83;11.03;;;18.20;1.00;;;;;;5067942;28;20475;-83
2021/06/04 07:13:08;;;;;;;11.63;9.70;;;18.30;1.00;;;;;;5069465;28;20454;-82
2021/06/04 07:15:34;;;;;;;12.20;10.87;;;18.30;1.00;;;;;;5072694;28;21566;-85
2021/06/04 07:18:04;;;;;;;13.10;10.90;;;18.40;1.00;;;;;;5062507;28;20936;-82
2021/06/04 07:20:34;;;;;;;13.53;11.20;;;18.50;1.00;;;;;;5059899;28;20460;-82
2021/06/04 07:23:02;;;;;;;12.17;10.80;;;18.60;1.00;;;;;;5055615;28;20565;-84
2021/06/04 07:25:33;;;;;;;11.80;10.13;;;18.80;1.00;;;;;;5069936;28;20447;-82
2021/06/04 07:28:00;;;;;;;15.13;10.93;;;18.90;1.00;;;;;;5057150;28;20635;-80
2021/06/04 07:30:30;;;;;;;10.40;9.30;;;18.90;1.00;;;;;;5059061;28;20443;-83
2021/06/04 07:32:57;;;;;;;10.90;9.80;;;18.90;1.00;;;;;;5046088;28;20448;-80
2021/06/04 07:35:26;;;;;;;11.13;10.03;;;18.90;1.00;;;;;;5054246;28;20604;-80
2021/06/04 07:37:52;;;;;;;17.57;12.23;;;18.80;1.00;;;;;;5061655;28;20509;-81
2021/06/04 07:40:24;;;;;;;17.20;15.30;;;18.80;1.00;;;;;;5052320;28;20442;-84
2021/06/04 07:42:50;;;;;;;15.00;11.30;;;18.90;1.00;;;;;;5050600;28;20485;-78
2021/06/04 07:45:18;;;;;;;12.40;11.13;;;18.90;1.00;;;;;;5050869;28;20633;-79
2021/06/04 07:47:46;;;;;;;11.50;10.40;;;18.80;1.00;;;;;;5051439;28;20858;-78
2021/06/04 07:50:13;;;;;;;11.20;10.20;;;18.90;1.00;;;;;;5046827;28;20494;-79
2021/06/04 07:52:41;;;;;;;11.17;10.17;;;18.80;1.00;;;;;;5049094;28;20459;-79
2021/06/04 07:55:13;;;;;;;11.47;10.37;;;18.80;1.00;;;;;;5043072;28;20451;-77
2021/06/04 07:57:39;;;;;;;10.77;9.63;;;18.80;1.00;;;;;;5049689;28;20567;-78
2021/06/04 08:00:08;;;;;;;11.77;10.67;;;18.80;1.00;;;;;;5048628;28;20466;-79
2021/06/04 08:02:34;;;;;;;11.10;10.10;;;18.80;1.00;;;;;;5045779;28;20464;-78
2021/06/04 08:05:02;;;;;;;12.90;10.30;;;18.80;1.00;;;;;;5040324;28;20462;-78
2021/06/04 08:07:29;;;;;;;13.00;11.23;;;18.80;1.00;;;;;;5048977;28;21154;-79
2021/06/04 08:09:57;;;;;;;11.77;10.77;;;18.90;1.00;;;;;;5048467;28;21324;-80
2021/06/04 08:12:30;;;;;;;12.60;11.30;;;19.00;1.00;;;;;;5051098;28;20483;-79
2021/06/04 08:14:57;;;;;;;11.03;9.80;;;19.10;1.00;;;;;;5046198;28;20516;-80
2021/06/04 08:17:24;;;;;;;11.97;9.90;;;19.20;1.00;;;;;;5048176;28;20443;-78
2021/06/04 08:19:50;;;;;;;10.30;9.20;;;19.20;1.00;;;;;;5050575;28;20441;-78
2021/06/04 08:22:17;;;;;;;11.23;9.67;;;19.20;1.00;;;;;;5046738;28;20494;-78
2021/06/04 08:24:43;;;;;;;10.20;9.07;;;19.20;1.00;;;;;;5048116;28;20468;-79
2021/06/04 08:27:14;;;;;;;10.77;9.40;;;19.20;1.00;;;;;;5047330;28;20955;-78
2021/06/04 08:29:40;;;;;;;10.67;9.63;;;19.20;1.00;;;;;;5048110;28;20463;-78
2021/06/04 08:32:09;;;;;;;12.43;10.03;;;19.30;1.00;;;;;;5047604;28;20495;-79
2021/06/04 08:34:35;;;;;;;12.90;11.07;;;19.30;1.00;;;;;;5049318;28;20467;-78
2021/06/04 08:37:01;;;;;;;10.33;9.33;;;19.30;1.00;;;;;;5047925;28;20667;-80
2021/06/04 08:39:30;;;;;;;10.27;9.27;;;19.50;1.00;;;;;;5044822;28;20455;-79
2021/06/04 08:42:08;;;;;;;13.30;12.10;;;19.50;1.00;;;;;;5053179;28;20455;-79
2021/06/04 08:44:47;;;;;;;10.07;9.07;;;19.60;1.00;;;;;;5054577;28;20474;-78
2021/06/04 08:47:16;;;;;;;9.67;8.97;;;19.70;1.00;;;;;;5047788;28;20439;-79
2021/06/04 08:50:04;;;;;;;10.80;8.67;;;19.80;1.00;;;;;;5049957;28;20547;-79
2021/06/04 08:52:37;;;;;;;10.60;9.30;;;19.80;1.00;;;;;;5049856;28;20472;-79
2021/06/04 08:55:12;;;;;;;9.83;8.97;;;19.90;1.00;;;;;;5066914;28;20465;-79
2021/06/04 08:57:49;;;;;;;10.47;9.57;;;20.00;1.00;;;;;;5050626;28;20972;-78
2021/06/04 09:00:20;;;;;;;10.60;9.53;;;20.10;1.00;;;;;;5052550;28;20501;-79
2021/06/04 09:02:50;;;;;;;11.17;9.77;;;19.80;1.00;;;;;;5052301;28;20470;-79
2021/06/04 09:05:21;;;;;;;12.00;10.97;;;19.60;1.00;;;;;;5049821;28;20535;-78
2021/06/04 09:07:51;;;;;;;11.07;9.20;;;19.40;1.00;;;;;;5045727;28;20428;-78
2021/06/04 09:10:29;;;;;;;9.17;8.40;;;19.30;1.00;;;;;;5045721;28;20454;-78
2021/06/04 09:13:01;;;;;;;12.03;9.60;;;19.40;1.00;;;;;;5051194;28;20505;-78
2021/06/04 09:15:32;;;;;;;14.10;9.30;;;19.30;1.00;;;;;;5062556;28;20447;-78
2021/06/04 09:18:04;;;;;;;10.30;9.30;;;19.20;1.00;;;;;;5050210;28;20562;-78
2021/06/04 09:20:39;;;;;;;10.07;9.07;;;19.20;1.00;;;;;;5045987;28;20430;-79
2021/06/04 09:23:11;;;;;;;9.77;8.87;;;19.20;1.00;;;;;;5050672;28;20470;-78
2021/06/04 09:25:39;;;;;;;10.33;9.40;;;19.20;1.00;;;;;;5053306;28;20516;-80
2021/06/04 09:28:21;;;;;;;11.93;10.80;;;19.30;1.00;;;;;;5053606;28;21624;-80
2021/06/04 09:30:51;;;;;;;11.73;10.60;;;19.40;1.00;;;;;;5068269;28;21345;-81
2021/06/04 09:33:24;;;;;;;10.90;10.00;;;19.50;1.00;;;;;;5057120;28;21769;-79
2021/06/04 09:36:04;;;;;;;9.10;8.30;;;19.60;1.00;;;;;;5061308;28;20470;-80
2021/06/04 09:38:35;;;;;;;10.93;9.93;;;19.70;1.00;;;;;;5060951;28;20514;-79
2021/06/04 09:41:34;;;;;;;10.57;9.57;;;19.70;1.00;;;;;;5057397;28;20427;-80
2021/06/04 09:44:14;;;;;;;10.33;9.43;;;19.80;1.00;;;;;;5048758;28;20465;-80
2021/06/04 09:46:51;;;;;;;10.07;9.03;;;19.90;1.00;;;;;;5054250;28;20451;-78
2021/06/04 09:49:30;;;;;;;11.10;9.83;;;19.90;1.00;;;;;;5055533;28;20578;-80
2021/06/04 09:52:15;;;;;;;10.30;9.40;;;19.90;1.00;;;;;;5052036;28;20502;-79
2021/06/04 09:54:42;;;;;;;11.90;10.80;;;19.80;1.00;;;;;;5058722;28;20469;-79
2021/06/04 09:57:11;;;;;;;11.77;10.77;;;19.80;1.00;;;;;;5086222;28;20455;-79
2021/06/04 09:59:38;;;;;;;10.73;9.73;;;19.70;1.00;;;;;;5063840;28;20401;-79
2021/06/04 10:02:31;;;;;;;12.30;11.00;;;19.70;1.00;;;;;;5061826;28;20514;-79
2021/06/04 10:05:14;;;;;;;13.37;12.07;;;19.90;1.00;;;;;;5062719;28;20444;-79
2021/06/04 10:07:41;;;;;;;12.50;11.17;;;20.20;1.00;;;;;;5074146;28;20422;-82
2021/06/04 10:10:32;;;;;;;11.50;10.40;;;20.40;1.00;;;;;;5076165;28;20507;-79
2021/06/04 10:13:00;;;;;;;10.43;9.50;;;20.60;1.00;;;;;;5069449;28;20411;-79
2021/06/04 10:15:31;;;;;;;11.70;10.60;;;20.90;1.00;;;;;;5077653;28;20415;-80
2021/06/04 10:18:01;;;;;;;12.97;10.40;;;21.00;1.00;;;;;;5077482;28;20515;-79
2021/06/04 10:20:42;;;;;;;13.60;10.13;;;21.10;1.00;;;;;;5080595;28;20519;-84
2021/06/04 10:23:15;;;;;;;12.73;10.70;;;21.20;1.00;;;;;;5073859;28;22118;-80
2021/06/04 10:25:51;;;;;;;10.73;9.63;;;21.20;1.00;;;;;;5077255;28;23430;-82
2021/06/04 10:28:32;;;;;;;10.87;9.87;;;21.30;1.00;;;;;;5059459;28;20448;-82
2021/06/04 10:31:07;;;;;;;15.00;11.00;;;21.30;1.00;;;;;;5064552;28;20607;-81
2021/06/04 10:33:44;;;;;;;11.43;10.23;;;21.40;1.00;;;;;;5062553;28;20486;-82
2021/06/04 10:36:17;;;;;;;12.37;9.40;;;21.60;1.00;;;;;;5057759;28;20545;-83
2021/06/04 10:38:49;;;;;;;11.43;10.40;;;21.70;1.00;;;;;;5059517;28;20494;-82
2021/06/04 10:41:20;;;;;;;10.00;9.00;;;21.90;1.00;;;;;;5053518;28;20474;-82
2021/06/04 10:44:02;;;;;;;10.47;9.57;;;22.00;1.00;;;;;;5064697;28;20475;-81
2021/06/04 10:46:36;;;;;;;11.10;10.00;;;22.10;1.00;;;;;;5056302;28;20426;-83
2021/06/04 10:49:18;;;;;;;11.20;10.20;;;22.40;1.00;;;;;;5055974;28;20434;-83
2021/06/04 10:51:53;;;;;;;13.48;11.18;;;22.80;1.00;;;;;;5056819;28;20406;-82
2021/06/04 10:54:27;;;;;;;10.63;9.73;;;23.00;1.00;;;;;;5055054;28;20342;-82
2021/06/04 10:57:00;;;;;;;10.20;9.23;;;23.00;1.00;;;;;;5060895;28;20460;-84
2021/06/04 10:59:38;;;;;;;10.60;9.60;;;22.90;1.00;;;;;;5055825;28;20502;-82
2021/06/04 11:02:15;;;;;;;11.37;10.10;;;22.90;1.00;;;;;;5055287;28;20410;-82
2021/06/04 11:04:56;;;;;;;10.60;9.53;;;22.90;1.00;;;;;;5064144;28;20527;-82
2021/06/04 11:07:30;;;;;;;10.90;9.80;;;22.90;1.00;;;;;;5063553;28;20752;-81
2021/06/04 11:10:04;;;;;;;11.30;10.20;;;22.90;1.00;;;;;;5065441;28;20494;-81
2021/06/04 11:12:46;;;;;;;10.10;9.30;;;22.90;1.00;;;;;;5070258;28;20937;-82
2021/06/04 11:15:22;;;;;;;9.40;8.50;;;23.10;1.00;;;;;;5070598;28;20474;-82
2021/06/04 11:17:54;;;;;;;10.57;9.20;;;23.30;1.00;;;;;;5081489;28;20414;-81
2021/06/04 11:20:26;;;;;;;10.80;9.20;;;23.60;1.00;;;;;;5070938;28;20462;-81
2021/06/04 11:23:02;;;;;;;10.03;9.13;;;23.80;1.00;;;;;;5059442;28;20440;-79
2021/06/04 11:25:40;;;;;;;10.20;9.40;;;24.10;1.00;;;;;;5055536;28;20425;-80
2021/06/04 11:28:15;;;;;;;10.40;9.50;;;24.40;1.00;;;;;;5055765;28;20532;-79
2021/06/04 11:30:43;;;;;;;12.97;11.80;;;24.80;1.00;;;;;;5055603;28;21061;-81
2021/06/04 11:33:21;;;;;;;11.17;9.60;;;25.60;1.00;;;;;;5058406;28;20469;-80
2021/06/04 11:35:53;;;;;;;29.23;27.23;;;27.00;1.00;;;;;;5057593;28;21159;-80
2021/06/04 11:38:30;;;;;;;8.00;7.40;;;27.70;1.00;;;;;;5055183;28;20437;-82
2021/06/04 11:41:09;;;;;;;7.90;7.30;;;27.80;1.00;;;;;;5060956;28;21019;-80
2021/06/04 11:43:39;;;;;;;8.10;7.40;;;28.30;1.00;;;;;;5058407;28;20599;-82
2021/06/04 11:46:27;;;;;;;8.17;7.47;;;28.70;1.00;;;;;;5054268;28;20479;-78
2021/06/04 11:49:17;;;;;;;7.00;6.40;;;29.10;1.00;;;;;;5052402;28;21005;-83
2021/06/04 11:51:50;;;;;;;6.90;6.30;;;29.40;1.00;;;;;;5054169;28;20460;-82
2021/06/04 11:54:43;;;;;;;7.83;7.10;;;29.60;1.00;;;;;;5067701;28;20417;-79
2021/06/04 11:57:14;;;;;;;7.47;6.77;;;28.90;1.00;;;;;;5005432;28;20500;-80
2021/06/04 12:00:06;;;;;;;8.10;7.37;;;28.90;1.00;;;;;;5051585;28;22032;-81
2021/06/04 12:02:38;;;;;;;7.80;7.23;;;28.80;1.00;;;;;;5023782;28;20474;-79
2021/06/04 12:05:30;;;;;;;9.80;7.43;;;28.30;1.00;;;;;;5047059;28;20428;-80
2021/06/04 12:08:16;;;;;;;9.07;7.77;;;27.70;1.00;;;;;;5046970;28;20448;-81
2021/06/04 12:11:19;;;;;;;8.97;8.13;;;27.10;1.00;;;;;;5053779;28;21348;-81
2021/06/04 12:14:19;;;;;;;8.63;7.70;;;26.70;1.00;;;;;;5045987;28;20456;-79
2021/06/04 12:17:06;;;;;;;8.17;7.47;;;26.30;1.00;;;;;;5051731;28;20483;-80
2021/06/04 12:19:35;;;;;;;11.60;10.37;;;26.30;1.00;;;;;;5048786;28;21079;-80
2021/06/04 12:22:05;;;;;;;8.10;7.30;;;26.40;1.00;;;;;;5060611;28;21175;-80
2021/06/04 12:24:55;;;;;;;9.83;9.03;;;26.30;1.00;;;;;;5051806;28;20459;-79
2021/06/04 12:28:07;;;;;;;9.00;8.17;;;26.30;1.00;;;;;;5050532;28;20503;-79
2021/06/04 12:30:52;;;;;;;8.10;7.33;;;26.40;1.00;;;;;;5047915;28;20473;-79
2021/06/04 12:33:39;;;;;;;8.40;7.60;;;26.50;1.00;;;;;;5051030;28;20451;-79
2021/06/04 12:36:55;;;;;;;8.80;8.00;;;26.10;1.00;;;;;;5057283;28;20460;-80
2021/06/04 12:40:16;;;;;;;9.60;8.87;;;26.10;1.00;;;;;;5056701;28;20404;-78
2021/06/04 12:42:46;;;;;;;9.03;8.13;;;26.30;1.00;;;;;;5062844;28;21188;-79
2021/06/04 12:45:28;;;;;;;8.80;8.10;;;26.40;1.00;;;;;;5056291;28;20510;-80
2021/06/04 12:48:00;;;;;;;9.07;8.27;;;27.10;1.00;;;;;;5061966;28;20457;-79
2021/06/04 12:50:29;;;;;;;8.40;7.70;;;27.70;1.00;;;;;;5060859;28;20430;-80
2021/06/04 12:53:13;;;;;;;9.63;8.70;;;27.80;1.00;;;;;;5063951;28;20454;-81
2021/06/04 12:55:42;;;;;;;9.00;8.30;;;27.80;1.00;;;;;;5055101;28;20444;-80
2021/06/04 12:58:12;;;;;;;8.60;7.90;;;27.80;1.00;;;;;;5052874;28;20669;-79
2021/06/04 13:00:39;;;;;;;9.20;8.30;;;27.90;1.00;;;;;;5056111;28;20452;-81
2021/06/04 13:03:14;;;;;;;8.53;7.40;;;27.80;1.00;;;;;;5047478;28;20475;-81
2021/06/04 13:05:45;;;;;;;8.83;8.03;;;27.40;1.00;;;;;;5051440;28;21457;-81
2021/06/04 13:08:15;;;;;;;8.43;7.73;;;27.20;1.00;;;;;;5053155;28;20499;-80
2021/06/04 13:10:50;;;;;;;8.23;7.53;;;27.00;1.00;;;;;;5041708;28;20698;-80
2021/06/04 13:13:21;;;;;;;7.93;7.23;;;27.00;1.00;;;;;;5049532;28;20467;-80
2021/06/04 13:15:48;;;;;;;9.20;8.43;;;26.90;1.00;;;;;;5049230;28;20459;-80